Time;durP1;ratioP1;P1;durP2;ratioP2;P2;SDS_P1;SDS_P2;PMS_P1;PMS_P2;Temp;Humidity;BMP_temperature;BMP_pressure;BME280_temperature;BME280_humidity;BME280_pressure;Samples;Min_cycle;Max_cycle;Signal;HPM_P1;HPM_P2
2022/08/04 00:20:42;;;;;;;0.10;0.10;;;;;;;;;;6218140;22;20043;-96
2022/08/04 00:23:13;;;;;;;0.22;0.17;;;;;;;;;;6165591;23;20348;-95
2022/08/04 00:25:40;;;;;;;0.10;0.10;;;;;;;;;;6141533;23;20023;-94
2022/08/04 00:28:06;;;;;;;0.10;0.10;;;;;;;;;;6141038;23;20438;-96
2022/08/04 00:30:35;;;;;;;0.10;0.10;;;;;;;;;;6141862;23;20067;-95
2022/08/04 00:33:02;;;;;;;0.10;0.10;;;;;;;;;;6165295;23;20013;-94
2022/08/04 00:35:28;;;;;;;0.10;0.10;;;;;;;;;;6165801;23;20023;-93
2022/08/04 00:37:54;;;;;;;0.10;0.10;;;;;;;;;;6165050;23;20032;-93
2022/08/04 00:40:35;;;;;;;0.10;0.10;;;;;;;;;;6165682;23;20031;-93
2022/08/04 00:43:22;;;;;;;0.10;0.10;;;;;;;;;;6165226;23;20045;-95
2022/08/04 00:46:17;;;;;;;0.10;0.10;;;;;;;;;;6144705;23;20319;-94
2022/08/04 00:49:23;;;;;;;0.10;0.10;;;;;;;;;;6061017;23;20022;-94
2022/08/04 00:51:49;;;;;;;0.10;0.10;;;;;;;;;;6165161;23;20012;-93
2022/08/04 00:54:26;;;;;;;0.10;0.10;;;;;;;;;;6164692;23;20008;-93
2022/08/04 00:57:13;;;;;;;0.10;0.10;;;;;;;;;;6165082;23;20009;-93
2022/08/04 00:59:45;;;;;;;0.10;0.10;;;;;;;;;;6164337;23;20009;-93
2022/08/04 01:02:17;;;;;;;0.10;0.10;;;;;;;;;;6165357;23;20087;-93
2022/08/04 01:04:55;;;;;;;0.10;0.10;;;;;;;;;;6164906;23;20027;-94
2022/08/04 01:07:30;;;;;;;0.10;0.10;;;;;;;;;;6140519;23;20095;-94
2022/08/04 01:10:03;;;;;;;0.10;0.10;;;;;;;;;;6165051;23;20017;-94
2022/08/04 01:12:36;;;;;;;0.10;0.10;;;;;;;;;;6163975;23;20017;-93
2022/08/04 01:15:06;;;;;;;0.10;0.10;;;;;;;;;;6164388;23;20015;-93
2022/08/04 01:17:32;;;;;;;0.17;0.17;;;;;;;;;;6164550;23;20013;-94
2022/08/04 01:20:08;;;;;;;0.10;0.10;;;;;;;;;;6186731;23;20020;-94
2022/08/04 01:22:34;;;;;;;0.10;0.10;;;;;;;;;;6195067;23;20091;-94
2022/08/04 01:25:24;;;;;;;0.10;0.10;;;;;;;;;;6194859;23;20020;-94
2022/08/04 01:28:09;;;;;;;0.10;0.10;;;;;;;;;;6195794;23;20074;-94
2022/08/04 01:30:35;;;;;;;0.10;0.10;;;;;;;;;;6195260;23;20019;-94
2022/08/04 01:33:02;;;;;;;0.10;0.10;;;;;;;;;;6196107;23;20016;-94
2022/08/04 01:35:28;;;;;;;0.10;0.10;;;;;;;;;;6195557;23;20266;-96
2022/08/04 01:38:02;;;;;;;0.10;0.10;;;;;;;;;;6195127;23;20019;-96
2022/08/04 01:40:28;;;;;;;0.10;0.10;;;;;;;;;;6194913;23;20020;-96
2022/08/04 01:42:57;;;;;;;0.10;0.10;;;;;;;;;;6194659;23;20023;-96
2022/08/04 01:45:23;;;;;;;0.10;0.10;;;;;;;;;;6195086;23;20015;-95
2022/08/04 01:47:53;;;;;;;0.10;0.10;;;;;;;;;;6194324;23;20060;-95
2022/08/04 01:50:19;;;;;;;0.10;0.10;;;;;;;;;;6194571;23;20012;-96
2022/08/04 01:52:46;;;;;;;0.10;0.10;;;;;;;;;;6194633;23;20019;-96
2022/08/04 01:55:13;;;;;;;0.10;0.10;;;;;;;;;;6168330;23;20429;-95
2022/08/04 01:57:42;;;;;;;0.10;0.10;;;;;;;;;;6194952;23;20016;-95
2022/08/04 02:00:25;;;;;;;0.10;0.10;;;;;;;;;;6194174;23;20012;-96
2022/08/04 02:02:51;;;;;;;0.10;0.10;;;;;;;;;;6194994;23;20031;-95
2022/08/04 02:05:18;;;;;;;0.10;0.10;;;;;;;;;;6194600;23;20461;-95
2022/08/04 02:07:50;;;;;;;0.10;0.10;;;;;;;;;;6194278;23;20012;-95
2022/08/04 02:10:17;;;;;;;0.10;0.10;;;;;;;;;;6194707;23;20047;-96
2022/08/04 02:12:49;;;;;;;0.10;0.10;;;;;;;;;;6194678;23;20016;-94
2022/08/04 02:15:22;;;;;;;0.25;0.25;;;;;;;;;;6194763;23;20101;-94
2022/08/04 02:17:52;;;;;;;0.10;0.10;;;;;;;;;;6194666;23;20016;-95
2022/08/04 02:20:19;;;;;;;0.10;0.10;;;;;;;;;;6194825;23;20013;-93
2022/08/04 02:22:47;;;;;;;0.10;0.10;;;;;;;;;;6194044;23;20019;-94
2022/08/04 02:25:13;;;;;;;0.10;0.10;;;;;;;;;;6194023;23;20012;-94
2022/08/04 02:27:54;;;;;;;0.10;0.10;;;;;;;;;;6194340;23;20015;-94
2022/08/04 02:30:20;;;;;;;0.10;0.10;;;;;;;;;;6193989;23;20012;-94
2022/08/04 02:32:46;;;;;;;0.10;0.10;;;;;;;;;;6192961;23;20438;-94
2022/08/04 02:35:17;;;;;;;0.10;0.10;;;;;;;;;;6194561;23;20044;-94
2022/08/04 02:37:47;;;;;;;0.10;0.10;;;;;;;;;;6194386;23;20058;-93
2022/08/04 02:40:13;;;;;;;0.10;0.10;;;;;;;;;;6194940;23;20090;-94
2022/08/04 02:42:39;;;;;;;0.10;0.10;;;;;;;;;;6194823;23;20027;-94
2022/08/04 02:45:05;;;;;;;0.10;0.10;;;;;;;;;;6195653;23;20098;-94
2022/08/04 02:47:31;;;;;;;0.10;0.10;;;;;;;;;;6195364;23;20098;-94
2022/08/04 02:49:57;;;;;;;0.10;0.10;;;;;;;;;;6195565;23;20095;-96
2022/08/04 02:52:24;;;;;;;0.10;0.10;;;;;;;;;;6194179;23;20012;-95
2022/08/04 02:54:54;;;;;;;0.10;0.10;;;;;;;;;;6194950;23;20048;-93
2022/08/04 02:57:21;;;;;;;0.10;0.10;;;;;;;;;;6195638;23;20047;-94
2022/08/04 03:00:07;;;;;;;0.10;0.10;;;;;;;;;;6196371;23;20013;-95
2022/08/04 03:02:36;;;;;;;0.10;0.10;;;;;;;;;;6195758;23;20043;-94
2022/08/04 03:05:03;;;;;;;0.10;0.10;;;;;;;;;;6193586;23;20020;-94
2022/08/04 03:07:48;;;;;;;0.10;0.10;;;;;;;;;;6194236;23;20150;-94
2022/08/04 03:10:20;;;;;;;0.10;0.10;;;;;;;;;;6194020;23;20146;-94
2022/08/04 03:13:04;;;;;;;0.10;0.10;;;;;;;;;;6196560;23;20441;-94
2022/08/04 03:15:49;;;;;;;0.10;0.10;;;;;;;;;;6195256;23;20008;-93
2022/08/04 03:18:33;;;;;;;0.10;0.10;;;;;;;;;;6195404;23;20019;-93
2022/08/04 03:21:18;;;;;;;0.10;0.10;;;;;;;;;;6195867;23;20016;-94
2022/08/04 03:24:03;;;;;;;0.10;0.10;;;;;;;;;;6196112;23;20100;-94
2022/08/04 03:26:29;;;;;;;0.10;0.10;;;;;;;;;;6196100;23;20016;-94
2022/08/04 03:29:10;;;;;;;0.10;0.10;;;;;;;;;;6195536;23;20112;-96
2022/08/04 03:31:42;;;;;;;0.10;0.10;;;;;;;;;;6219733;23;20019;-95
2022/08/04 03:34:08;;;;;;;0.10;0.10;;;;;;;;;;6196095;23;20019;-96
2022/08/04 03:37:02;;;;;;;0.10;0.10;;;;;;;;;;6195559;23;20445;-94
2022/08/04 03:39:28;;;;;;;0.10;0.10;;;;;;;;;;6169315;23;20016;-94
2022/08/04 03:42:24;;;;;;;0.10;0.10;;;;;;;;;;6195962;23;20018;-94
2022/08/04 03:44:53;;;;;;;0.10;0.10;;;;;;;;;;6165613;23;20095;-94
2022/08/04 03:47:24;;;;;;;0.10;0.10;;;;;;;;;;6197726;23;20100;-95
2022/08/04 03:50:02;;;;;;;0.10;0.10;;;;;;;;;;6198562;23;20011;-94
2022/08/04 03:55:26;;;;;;;0.10;0.10;;;;;;;;;;6223056;23;20012;-95
2022/08/04 03:58:10;;;;;;;0.10;0.10;;;;;;;;;;6198681;23;20346;-94
2022/08/04 04:00:41;;;;;;;0.20;0.20;;;;;;;;;;6198763;23;20069;-94
2022/08/04 04:03:25;;;;;;;0.15;0.15;;;;;;;;;;6199518;23;20016;-94
2022/08/04 04:05:58;;;;;;;0.10;0.10;;;;;;;;;;6199369;23;20008;-94
2022/08/04 04:08:29;;;;;;;0.10;0.10;;;;;;;;;;6198283;23;20012;-94
2022/08/04 04:11:04;;;;;;;0.10;0.10;;;;;;;;;;6199329;23;20084;-94
2022/08/04 04:13:38;;;;;;;0.10;0.10;;;;;;;;;;6201156;23;20008;-94
2022/08/04 04:16:07;;;;;;;0.10;0.10;;;;;;;;;;6201857;23;20013;-92
2022/08/04 04:18:42;;;;;;;0.10;0.10;;;;;;;;;;6205244;23;20020;-93
2022/08/04 04:21:27;;;;;;;0.20;0.20;;;;;;;;;;6207295;23;20055;-93
2022/08/04 04:23:53;;;;;;;0.10;0.10;;;;;;;;;;6207083;23;20398;-93
2022/08/04 04:26:38;;;;;;;0.10;0.10;;;;;;;;;;6207518;23;20031;-93
2022/08/04 04:29:14;;;;;;;0.10;0.10;;;;;;;;;;6202901;23;20333;-94
2022/08/04 04:31:49;;;;;;;0.10;0.10;;;;;;;;;;6198042;23;20168;-92
2022/08/04 04:34:35;;;;;;;0.10;0.10;;;;;;;;;;6197271;23;20008;-93
2022/08/04 04:37:00;;;;;;;0.10;0.10;;;;;;;;;;6198003;23;20464;-93
2022/08/04 04:39:45;;;;;;;0.10;0.10;;;;;;;;;;6197094;23;20012;-94
2022/08/04 04:42:36;;;;;;;0.10;0.10;;;;;;;;;;6198439;23;20022;-93
2022/08/04 04:45:15;;;;;;;0.10;0.10;;;;;;;;;;6200067;23;20066;-93
2022/08/04 04:47:54;;;;;;;0.10;0.10;;;;;;;;;;6201474;23;20016;-93
2022/08/04 04:50:42;;;;;;;0.20;0.20;;;;;;;;;;6201305;23;20016;-93
2022/08/04 04:53:24;;;;;;;0.10;0.10;;;;;;;;;;6126021;23;20027;-94
2022/08/04 04:56:00;;;;;;;0.10;0.10;;;;;;;;;;6202557;23;20508;-92
2022/08/04 04:58:26;;;;;;;0.10;0.10;;;;;;;;;;6200738;23;20016;-93
2022/08/04 05:01:11;;;;;;;0.10;0.10;;;;;;;;;;6197671;23;20014;-96
2022/08/04 05:03:41;;;;;;;0.10;0.10;;;;;;;;;;6182549;23;20087;-96
2022/08/04 05:06:14;;;;;;;0.10;0.10;;;;;;;;;;6195650;23;20016;-95
2022/08/04 05:08:47;;;;;;;;;;;;;;;;;;6195561;23;20058;-96
2022/08/04 05:11:13;;;;;;;0.10;0.10;;;;;;;;;;6195603;23;19923;-95
2022/08/04 05:13:49;;;;;;;0.10;0.10;;;;;;;;;;6195501;23;20495;-96
2022/08/04 05:16:21;;;;;;;0.10;0.10;;;;;;;;;;6195086;23;20016;-96
2022/08/04 05:18:51;;;;;;;0.40;0.40;;;;;;;;;;6219366;23;20091;-95
2022/08/04 05:21:36;;;;;;;0.10;0.10;;;;;;;;;;6196202;23;20074;-94
2022/08/04 05:24:04;;;;;;;0.10;0.10;;;;;;;;;;6194998;23;20012;-94
2022/08/04 05:26:32;;;;;;;0.10;0.10;;;;;;;;;;6195157;23;20058;-95
2022/08/04 05:28:59;;;;;;;0.55;0.55;;;;;;;;;;6195391;23;20062;-96
2022/08/04 05:31:26;;;;;;;0.25;0.25;;;;;;;;;;6194974;23;20381;-95
2022/08/04 05:33:54;;;;;;;0.10;0.10;;;;;;;;;;6194544;23;20031;-96
2022/08/04 05:36:23;;;;;;;0.10;0.10;;;;;;;;;;6195098;23;20008;-96
2022/08/04 05:38:53;;;;;;;0.10;0.10;;;;;;;;;;6194478;23;20099;-94
2022/08/04 05:41:19;;;;;;;0.10;0.10;;;;;;;;;;6193380;23;20016;-92
2022/08/04 05:43:45;;;;;;;0.10;0.10;;;;;;;;;;6193415;23;20016;-91
2022/08/04 05:46:11;;;;;;;0.10;0.10;;;;;;;;;;6193691;23;20078;-92
2022/08/04 05:48:37;;;;;;;0.10;0.10;;;;;;;;;;6193828;23;20023;-93
2022/08/04 05:51:04;;;;;;;0.10;0.10;;;;;;;;;;6194402;23;20016;-94
2022/08/04 05:53:30;;;;;;;0.10;0.10;;;;;;;;;;6194596;23;20019;-94
2022/08/04 05:55:56;;;;;;;0.10;0.10;;;;;;;;;;6194109;23;20012;-92
2022/08/04 05:58:23;;;;;;;0.10;0.10;;;;;;;;;;6193790;23;20019;-92
2022/08/04 06:00:49;;;;;;;0.10;0.10;;;;;;;;;;6193038;23;20491;-92
2022/08/04 06:03:15;;;;;;;0.10;0.10;;;;;;;;;;6191381;23;20023;-91
2022/08/04 06:05:41;;;;;;;0.10;0.10;;;;;;;;;;6193472;23;20012;-91
2022/08/04 06:08:07;;;;;;;0.20;0.20;;;;;;;;;;6193474;23;20334;-89
2022/08/04 06:10:33;;;;;;;0.20;0.20;;;;;;;;;;6193897;23;20012;-89
2022/08/04 06:13:01;;;;;;;0.10;0.10;;;;;;;;;;6193077;23;20016;-89
2022/08/04 06:15:27;;;;;;;0.10;0.10;;;;;;;;;;6193039;23;20008;-88
2022/08/04 06:17:56;;;;;;;0.10;0.10;;;;;;;;;;6192742;23;20039;-90
2022/08/04 06:20:25;;;;;;;0.10;0.10;;;;;;;;;;6193394;23;20055;-90
2022/08/04 06:22:53;;;;;;;0.50;0.50;;;;;;;;;;6192456;23;20023;-89
2022/08/04 06:25:20;;;;;;;0.10;0.10;;;;;;;;;;6192911;23;20094;-91
2022/08/04 06:27:47;;;;;;;0.10;0.10;;;;;;;;;;6217511;23;20011;-91
2022/08/04 06:30:13;;;;;;;0.10;0.10;;;;;;;;;;6193002;23;20168;-90
2022/08/04 06:32:47;;;;;;;0.20;0.20;;;;;;;;;;6192812;23;20478;-91
2022/08/04 06:35:14;;;;;;;0.10;0.10;;;;;;;;;;6194481;23;20016;-89
2022/08/04 06:37:40;;;;;;;0.10;0.10;;;;;;;;;;6192957;23;20108;-91
2022/08/04 06:40:07;;;;;;;0.10;0.10;;;;;;;;;;6192254;23;20484;-90
2022/08/04 06:42:33;;;;;;;0.10;0.10;;;;;;;;;;6192775;23;20361;-89
2022/08/04 06:44:59;;;;;;;0.20;0.20;;;;;;;;;;6192834;23;20020;-89
2022/08/04 06:47:25;;;;;;;0.20;0.20;;;;;;;;;;6192859;23;20009;-89
2022/08/04 06:49:51;;;;;;;0.10;0.10;;;;;;;;;;6192945;23;20337;-89
2022/08/04 06:52:18;;;;;;;0.10;0.10;;;;;;;;;;6192682;23;20040;-89
2022/08/04 06:54:47;;;;;;;0.35;0.35;;;;;;;;;;6192914;23;20016;-89
2022/08/04 06:57:14;;;;;;;0.20;0.20;;;;;;;;;;6192924;23;20073;-89
2022/08/04 06:59:41;;;;;;;0.10;0.10;;;;;;;;;;6192965;23;20434;-89
2022/08/04 07:02:07;;;;;;;0.10;0.10;;;;;;;;;;6192785;23;20022;-90
2022/08/04 07:04:33;;;;;;;0.10;0.10;;;;;;;;;;6192522;23;20016;-91
2022/08/04 07:06:59;;;;;;;0.20;0.20;;;;;;;;;;6192842;23;20353;-89
2022/08/04 07:09:25;;;;;;;0.20;0.20;;;;;;;;;;6192693;23;20012;-89
2022/08/04 07:11:52;;;;;;;0.20;0.20;;;;;;;;;;6192646;23;20099;-89
2022/08/04 07:14:17;;;;;;;0.10;0.10;;;;;;;;;;6192890;23;20015;-90
2022/08/04 07:16:43;;;;;;;0.20;0.20;;;;;;;;;;6192645;23;20008;-89
2022/08/04 07:19:09;;;;;;;0.10;0.10;;;;;;;;;;6192418;23;20012;-89
2022/08/04 07:21:35;;;;;;;0.15;0.15;;;;;;;;;;6192485;23;20390;-90
2022/08/04 07:24:01;;;;;;;0.20;0.20;;;;;;;;;;6192154;23;20051;-90
2022/08/04 07:26:28;;;;;;;0.10;0.10;;;;;;;;;;6192716;23;20394;-89
2022/08/04 07:28:54;;;;;;;0.20;0.20;;;;;;;;;;6192913;23;20069;-90
2022/08/04 07:31:22;;;;;;;0.17;0.17;;;;;;;;;;6192478;23;20081;-91
2022/08/04 07:33:48;;;;;;;0.20;0.20;;;;;;;;;;6193247;23;20016;-89
2022/08/04 07:36:14;;;;;;;0.20;0.20;;;;;;;;;;6192621;23;20012;-90
2022/08/04 07:38:41;;;;;;;0.10;0.10;;;;;;;;;;6192710;23;20070;-90
2022/08/04 07:41:07;;;;;;;0.10;0.10;;;;;;;;;;6192477;23;20016;-89
2022/08/04 07:43:33;;;;;;;0.40;0.40;;;;;;;;;;6192687;23;20074;-89
2022/08/04 07:45:59;;;;;;;0.20;0.20;;;;;;;;;;6192554;23;20367;-89
2022/08/04 07:48:25;;;;;;;0.20;0.20;;;;;;;;;;6192832;23;20012;-90
2022/08/04 07:50:51;;;;;;;0.20;0.20;;;;;;;;;;6192437;23;20012;-89
2022/08/04 07:53:17;;;;;;;0.20;0.20;;;;;;;;;;6193020;23;20009;-90
2022/08/04 07:55:46;;;;;;;0.20;0.20;;;;;;;;;;6192491;23;20012;-89
2022/08/04 07:58:12;;;;;;;0.20;0.20;;;;;;;;;;6194032;23;20012;-90
2022/08/04 08:00:38;;;;;;;0.20;0.20;;;;;;;;;;6194039;23;20020;-90
2022/08/04 08:03:04;;;;;;;0.20;0.20;;;;;;;;;;6193921;23;20683;-88
2022/08/04 08:05:30;;;;;;;0.30;0.30;;;;;;;;;;6193768;23;20082;-88
2022/08/04 08:07:57;;;;;;;0.20;0.20;;;;;;;;;;6194160;23;20381;-89
2022/08/04 08:10:24;;;;;;;0.20;0.20;;;;;;;;;;6194041;23;20323;-88
2022/08/04 08:12:50;;;;;;;0.20;0.20;;;;;;;;;;6194025;23;20027;-88
2022/08/04 08:15:16;;;;;;;0.20;0.20;;;;;;;;;;6217681;23;20012;-88
2022/08/04 08:17:42;;;;;;;0.10;0.10;;;;;;;;;;6194379;23;20015;-88
2022/08/04 08:20:08;;;;;;;0.20;0.20;;;;;;;;;;6193963;23;20016;-88
2022/08/04 08:22:35;;;;;;;0.20;0.20;;;;;;;;;;6194302;23;20630;-88
2022/08/04 08:25:01;;;;;;;0.20;0.20;;;;;;;;;;6194068;23;20015;-88
2022/08/04 08:27:27;;;;;;;0.20;0.20;;;;;;;;;;6193880;23;20016;-89
2022/08/04 08:29:53;;;;;;;0.20;0.20;;;;;;;;;;6193820;23;20046;-88
2022/08/04 08:32:19;;;;;;;0.20;0.20;;;;;;;;;;6194076;23;20027;-90
2022/08/04 08:34:45;;;;;;;0.20;0.20;;;;;;;;;;6194210;23;20012;-88
2022/08/04 08:37:20;;;;;;;0.20;0.20;;;;;;;;;;6193992;23;20008;-88
2022/08/04 08:39:49;;;;;;;0.20;0.20;;;;;;;;;;6218666;23;20021;-89
2022/08/04 08:42:24;;;;;;;0.20;0.20;;;;;;;;;;6193793;23;20048;-89
2022/08/04 08:44:56;;;;;;;0.20;0.20;;;;;;;;;;6193685;23;20016;-87
2022/08/04 08:47:41;;;;;;;0.20;0.20;;;;;;;;;;6245585;23;20039;-87
2022/08/04 08:50:26;;;;;;;0.20;0.20;;;;;;;;;;6218410;23;20014;-89
2022/08/04 08:53:10;;;;;;;0.20;0.20;;;;;;;;;;6218496;23;20020;-89
2022/08/04 08:55:42;;;;;;;0.20;0.20;;;;;;;;;;6218620;23;20062;-88
2022/08/04 08:58:27;;;;;;;0.20;0.20;;;;;;;;;;6218663;23;20088;-86
2022/08/04 09:00:55;;;;;;;0.20;0.20;;;;;;;;;;6218623;23;20012;-88
2022/08/04 09:03:40;;;;;;;0.17;0.17;;;;;;;;;;6193623;23;20508;-88
2022/08/04 09:06:26;;;;;;;0.52;0.52;;;;;;;;;;6218633;23;20047;-89
2022/08/04 09:09:08;;;;;;;0.20;0.20;;;;;;;;;;6191974;23;20070;-89
2022/08/04 09:11:34;;;;;;;;;;;;;;;;;;6193666;23;20012;-89
2022/08/04 09:14:19;;;;;;;0.20;0.20;;;;;;;;;;6193398;23;19919;-88
2022/08/04 09:17:05;;;;;;;0.20;0.20;;;;;;;;;;6193442;23;20008;-91
2022/08/04 09:19:39;;;;;;;0.20;0.20;;;;;;;;;;6193402;23;20051;-91
2022/08/04 09:22:08;;;;;;;0.20;0.20;;;;;;;;;;6193266;23;20031;-91
2022/08/04 09:24:37;;;;;;;0.20;0.20;;;;;;;;;;6218349;23;20016;-92
2022/08/04 09:27:24;;;;;;;2.08;0.30;;;;;;;;;;6193482;23;20436;-91
2022/08/04 09:30:02;;;;;;;0.20;0.20;;;;;;;;;;6217924;23;20012;-92
2022/08/04 09:32:59;;;;;;;0.20;0.20;;;;;;;;;;5050285;27;20407;-90
2022/08/04 09:35:37;;;;;;;0.20;0.20;;;;;;;;;;5016898;28;20130;-91
2022/08/04 09:38:12;;;;;;;0.20;0.20;;;;;;;;;;5017105;28;20056;-90
2022/08/04 09:40:40;;;;;;;0.20;0.20;;;;;;;;;;5033872;28;20441;-90
2022/08/04 09:43:16;;;;;;;0.20;0.20;;;;;;;;;;5016453;28;20041;-89
2022/08/04 09:45:45;;;;;;;0.20;0.20;;;;;;;;;;5016845;28;20037;-90
2022/08/04 09:48:13;;;;;;;0.20;0.20;;;;;;;;;;5016271;28;20123;-89
2022/08/04 09:50:40;;;;;;;0.20;0.20;;;;;;;;;;5015575;28;20041;-90
2022/08/04 09:53:25;;;;;;;0.20;0.20;;;;;;;;;;5015016;28;20037;-93
2022/08/04 09:56:17;;;;;;;0.20;0.20;;;;;;;;;;5031165;28;20566;-92
2022/08/04 09:59:02;;;;;;;0.20;0.20;;;;;;;;;;5044267;28;20049;-92
2022/08/04 10:01:28;;;;;;;0.20;0.20;;;;;;;;;;5031629;28;20116;-92
2022/08/04 10:04:04;;;;;;;0.20;0.20;;;;;;;;;;5015013;28;20053;-92
2022/08/04 10:06:42;;;;;;;0.22;0.22;;;;;;;;;;5015207;28;20085;-92
2022/08/04 10:09:14;;;;;;;0.20;0.20;;;;;;;;;;5014657;28;20072;-92
2022/08/04 10:11:43;;;;;;;0.20;0.20;;;;;;;;;;5031129;28;20246;-92
2022/08/04 10:14:09;;;;;;;0.20;0.20;;;;;;;;;;5031735;28;20353;-93
2022/08/04 10:16:35;;;;;;;0.20;0.20;;;;;;;;;;5031400;28;20037;-90
2022/08/04 10:19:15;;;;;;;0.20;0.20;;;;;;;;;;5030561;28;20141;-91
2022/08/04 10:21:59;;;;;;;0.20;0.20;;;;;;;;;;5014471;28;20493;-91
2022/08/04 10:24:48;;;;;;;0.20;0.20;;;;;;;;;;5047012;28;20044;-91
2022/08/04 10:27:16;;;;;;;0.20;0.20;;;;;;;;;;5014649;28;20033;-90
2022/08/04 10:29:42;;;;;;;0.30;0.30;;;;;;;;;;5030785;28;20041;-90
2022/08/04 10:32:27;;;;;;;0.30;0.30;;;;;;;;;;5030633;28;20132;-90
2022/08/04 10:35:13;;;;;;;0.20;0.20;;;;;;;;;;5030231;28;20056;-90
2022/08/04 10:37:57;;;;;;;0.20;0.20;;;;;;;;;;5013995;28;20033;-90
2022/08/04 10:40:44;;;;;;;0.20;0.20;;;;;;;;;;5030279;28;20068;-90
2022/08/04 10:43:29;;;;;;;0.20;0.20;;;;;;;;;;5024442;28;20037;-90
2022/08/04 10:45:57;;;;;;;0.20;0.20;;;;;;;;;;5018264;28;20045;-90
2022/08/04 10:48:23;;;;;;;0.40;0.40;;;;;;;;;;5000683;28;20036;-88
2022/08/04 10:51:11;;;;;;;0.20;0.20;;;;;;;;;;5017414;28;20037;-88
2022/08/04 10:53:37;;;;;;;0.30;0.30;;;;;;;;;;5033584;28;20070;-91
2022/08/04 10:56:24;;;;;;;0.20;0.20;;;;;;;;;;5001109;28;20416;-91
2022/08/04 10:58:54;;;;;;;0.20;0.20;;;;;;;;;;5000762;28;20041;-88
2022/08/04 11:01:24;;;;;;;0.20;0.20;;;;;;;;;;5017080;28;20045;-88
2022/08/04 11:03:52;;;;;;;0.30;0.30;;;;;;;;;;5001210;28;20080;-88
2022/08/04 11:06:18;;;;;;;0.20;0.20;;;;;;;;;;5016873;28;20045;-88
2022/08/04 11:08:45;;;;;;;0.20;0.20;;;;;;;;;;5000488;28;20037;-88
2022/08/04 11:11:12;;;;;;;0.20;0.20;;;;;;;;;;5000375;28;20079;-88
2022/08/04 11:13:57;;;;;;;0.30;0.30;;;;;;;;;;5017482;28;20065;-88
2022/08/04 11:16:27;;;;;;;0.20;0.20;;;;;;;;;;5019965;28;20442;-89
2022/08/04 11:18:58;;;;;;;0.20;0.20;;;;;;;;;;5000144;28;20038;-89
2022/08/04 11:21:33;;;;;;;0.30;0.30;;;;;;;;;;5016719;28;20118;-89
2022/08/04 11:24:04;;;;;;;0.20;0.20;;;;;;;;;;5016750;28;20044;-89
2022/08/04 11:26:50;;;;;;;0.20;0.20;;;;;;;;;;5016614;28;20497;-89
2022/08/04 11:29:44;;;;;;;0.20;0.20;;;;;;;;;;5016344;28;20049;-89
2022/08/04 11:32:31;;;;;;;0.28;0.28;;;;;;;;;;5016518;28;20493;-89
2022/08/04 11:34:57;;;;;;;0.20;0.20;;;;;;;;;;5016626;28;20041;-90
2022/08/04 11:37:25;;;;;;;0.20;0.20;;;;;;;;;;4999902;28;20076;-90
2022/08/04 11:40:04;;;;;;;0.20;0.20;;;;;;;;;;5016208;28;20048;-90
2022/08/04 11:42:30;;;;;;;0.20;0.20;;;;;;;;;;4999945;28;20037;-90
2022/08/04 11:45:05;;;;;;;0.20;0.20;;;;;;;;;;5016105;28;20060;-91
2022/08/04 11:47:37;;;;;;;0.20;0.20;;;;;;;;;;5000045;28;20516;-90
2022/08/04 11:50:06;;;;;;;0.20;0.20;;;;;;;;;;4999790;28;20042;-90
2022/08/04 11:52:33;;;;;;;0.20;0.20;;;;;;;;;;5032469;28;20504;-90
2022/08/04 11:54:59;;;;;;;0.20;0.20;;;;;;;;;;5015057;28;20033;-90
2022/08/04 11:57:25;;;;;;;0.20;0.20;;;;;;;;;;4999910;28;20080;-90
2022/08/04 11:59:53;;;;;;;0.15;0.15;;;;;;;;;;4999783;28;20160;-90
2022/08/04 12:02:30;;;;;;;0.17;0.17;;;;;;;;;;5015914;28;20132;-90
2022/08/04 12:04:57;;;;;;;0.10;0.10;;;;;;;;;;4999598;28;20128;-90
2022/08/04 12:07:39;;;;;;;0.20;0.20;;;;;;;;;;5016069;28;20103;-90
2022/08/04 12:10:21;;;;;;;0.20;0.20;;;;;;;;;;4999647;28;20396;-90
2022/08/04 12:12:47;;;;;;;0.17;0.17;;;;;;;;;;4999496;28;20041;-90
2022/08/04 12:15:37;;;;;;;0.20;0.20;;;;;;;;;;5016171;28;20098;-90
2022/08/04 12:18:07;;;;;;;0.20;0.20;;;;;;;;;;5005669;28;20605;-90
2022/08/04 12:20:36;;;;;;;0.32;0.30;;;;;;;;;;5015915;28;20045;-90
2022/08/04 12:23:01;;;;;;;0.20;0.20;;;;;;;;;;5000146;28;20037;-91
2022/08/04 12:25:34;;;;;;;0.20;0.20;;;;;;;;;;5015420;28;20463;-90
2022/08/04 12:28:03;;;;;;;0.13;0.13;;;;;;;;;;4999579;28;20140;-91
2022/08/04 12:30:29;;;;;;;0.20;0.20;;;;;;;;;;5015219;28;20038;-91
2022/08/04 12:33:00;;;;;;;0.20;0.20;;;;;;;;;;4999226;28;20049;-91
2022/08/04 12:35:30;;;;;;;0.10;0.10;;;;;;;;;;4999185;28;20069;-91
2022/08/04 12:37:58;;;;;;;0.20;0.20;;;;;;;;;;4999248;28;20041;-91
2022/08/04 12:40:27;;;;;;;0.20;0.20;;;;;;;;;;5015620;28;20037;-91
2022/08/04 12:43:02;;;;;;;0.10;0.10;;;;;;;;;;4999125;28;20041;-90
2022/08/04 12:45:28;;;;;;;0.20;0.20;;;;;;;;;;5031541;28;20545;-91
2022/08/04 12:47:56;;;;;;;0.13;0.13;;;;;;;;;;4998736;28;20484;-89
2022/08/04 12:50:22;;;;;;;0.10;0.10;;;;;;;;;;5015230;28;20037;-89
2022/08/04 12:52:49;;;;;;;0.32;0.32;;;;;;;;;;4998856;28;20508;-89
2022/08/04 12:55:15;;;;;;;0.10;0.10;;;;;;;;;;4998944;28;20041;-88
2022/08/04 12:57:41;;;;;;;0.10;0.10;;;;;;;;;;5015478;28;20401;-89
2022/08/04 13:00:08;;;;;;;0.10;0.10;;;;;;;;;;4998507;28;20156;-89
2022/08/04 13:02:40;;;;;;;0.10;0.10;;;;;;;;;;4998723;28;20463;-89
2022/08/04 13:05:06;;;;;;;0.10;0.10;;;;;;;;;;4998783;28;20111;-89
2022/08/04 13:07:40;;;;;;;0.10;0.10;;;;;;;;;;4998567;28;20037;-89
2022/08/04 13:10:11;;;;;;;0.10;0.10;;;;;;;;;;5014720;28;20048;-89
2022/08/04 13:12:36;;;;;;;0.60;0.60;;;;;;;;;;4998394;28;20554;-89
2022/08/04 13:15:08;;;;;;;0.10;0.10;;;;;;;;;;5014869;28;20296;-89
2022/08/04 13:17:45;;;;;;;0.10;0.10;;;;;;;;;;5014705;28;20045;-89
2022/08/04 13:20:11;;;;;;;0.20;0.20;;;;;;;;;;4998543;28;20041;-89
2022/08/04 13:22:37;;;;;;;0.10;0.10;;;;;;;;;;4998212;28;20550;-88
2022/08/04 13:25:03;;;;;;;0.10;0.10;;;;;;;;;;4998382;28;20081;-89
2022/08/04 13:27:29;;;;;;;0.10;0.10;;;;;;;;;;4998645;28;20045;-89
2022/08/04 13:29:55;;;;;;;0.20;0.20;;;;;;;;;;5014689;28;20045;-89
2022/08/04 13:32:22;;;;;;;0.10;0.10;;;;;;;;;;5014438;28;20061;-89
2022/08/04 13:34:49;;;;;;;0.13;0.13;;;;;;;;;;4998504;28;20396;-88
2022/08/04 13:37:15;;;;;;;0.10;0.10;;;;;;;;;;4998601;28;20049;-89
2022/08/04 13:39:44;;;;;;;0.20;0.20;;;;;;;;;;4998208;28;20508;-89
2022/08/04 13:42:11;;;;;;;0.20;0.20;;;;;;;;;;4997982;28;20563;-89
2022/08/04 13:44:37;;;;;;;0.10;0.10;;;;;;;;;;5014454;28;20134;-92
2022/08/04 13:47:07;;;;;;;0.20;0.20;;;;;;;;;;4998294;28;20049;-88
2022/08/04 13:49:33;;;;;;;0.10;0.10;;;;;;;;;;5014358;28;20041;-89
2022/08/04 13:52:00;;;;;;;0.13;0.13;;;;;;;;;;5014156;28;20045;-88
2022/08/04 13:54:36;;;;;;;0.10;0.10;;;;;;;;;;4996056;28;20041;-89
2022/08/04 13:57:02;;;;;;;0.17;0.17;;;;;;;;;;5013953;28;20448;-89
2022/08/04 13:59:28;;;;;;;0.20;0.20;;;;;;;;;;5014797;28;20041;-90
2022/08/04 14:02:02;;;;;;;0.20;0.20;;;;;;;;;;4998219;28;20476;-90
2022/08/04 14:04:30;;;;;;;0.65;0.40;;;;;;;;;;4997899;28;20037;-90
2022/08/04 14:07:03;;;;;;;0.10;0.10;;;;;;;;;;5014605;28;20052;-90
2022/08/04 14:09:30;;;;;;;0.10;0.10;;;;;;;;;;4999698;28;20508;-90
2022/08/04 14:12:03;;;;;;;0.15;0.15;;;;;;;;;;5014292;28;20044;-91
2022/08/04 14:14:30;;;;;;;0.20;0.20;;;;;;;;;;4997552;28;20125;-88
2022/08/04 14:16:57;;;;;;;0.20;0.20;;;;;;;;;;5014454;28;20037;-87
2022/08/04 14:19:23;;;;;;;0.20;0.20;;;;;;;;;;5001377;28;20384;-87
2022/08/04 14:21:49;;;;;;;0.10;0.10;;;;;;;;;;5017685;28;20037;-88
2022/08/04 14:24:25;;;;;;;0.10;0.10;;;;;;;;;;5017925;28;20088;-89
2022/08/04 14:26:51;;;;;;;0.20;0.20;;;;;;;;;;5001376;28;20045;-88
2022/08/04 14:29:17;;;;;;;0.10;0.10;;;;;;;;;;5001225;28;20042;-89
2022/08/04 14:31:47;;;;;;;0.10;0.10;;;;;;;;;;5016986;28;20053;-91
2022/08/04 14:34:24;;;;;;;0.15;0.15;;;;;;;;;;5001075;28;20488;-90
2022/08/04 14:36:50;;;;;;;0.20;0.20;;;;;;;;;;5017540;28;20045;-88
2022/08/04 14:39:16;;;;;;;0.10;0.10;;;;;;;;;;5000988;28;20136;-88
2022/08/04 14:41:46;;;;;;;0.20;0.20;;;;;;;;;;5001139;28;20060;-88
2022/08/04 14:44:12;;;;;;;0.10;0.10;;;;;;;;;;5017754;28;20435;-88
2022/08/04 14:46:58;;;;;;;0.15;0.15;;;;;;;;;;5001186;28;20135;-88
2022/08/04 14:49:25;;;;;;;0.20;0.20;;;;;;;;;;5017260;28;20148;-88
2022/08/04 14:52:00;;;;;;;0.10;0.10;;;;;;;;;;5001103;28;20060;-88
2022/08/04 14:54:27;;;;;;;0.10;0.10;;;;;;;;;;5001209;28;20544;-88
2022/08/04 14:56:54;;;;;;;0.20;0.20;;;;;;;;;;5016955;28;20043;-88
2022/08/04 14:59:20;;;;;;;0.13;0.13;;;;;;;;;;5017367;28;20037;-88
2022/08/04 15:01:46;;;;;;;0.10;0.10;;;;;;;;;;5000799;28;20064;-88
2022/08/04 15:04:12;;;;;;;0.40;0.40;;;;;;;;;;5016775;28;20464;-88
2022/08/04 15:06:38;;;;;;;0.20;0.20;;;;;;;;;;5000314;28;20190;-88
2022/08/04 15:09:05;;;;;;;0.20;0.20;;;;;;;;;;5017002;28;20700;-88
2022/08/04 15:11:32;;;;;;;0.13;0.13;;;;;;;;;;5016701;28;20049;-90
2022/08/04 15:13:58;;;;;;;0.10;0.10;;;;;;;;;;5000226;28;20392;-90
2022/08/04 15:16:24;;;;;;;0.68;0.40;;;;;;;;;;5000357;28;20492;-89
2022/08/04 15:18:51;;;;;;;0.10;0.10;;;;;;;;;;5016496;28;20041;-88
2022/08/04 15:21:17;;;;;;;0.10;0.10;;;;;;;;;;5000000;28;20045;-89
2022/08/04 15:23:43;;;;;;;0.10;0.10;;;;;;;;;;5016798;28;20052;-90
2022/08/04 15:26:12;;;;;;;0.20;0.20;;;;;;;;;;5016568;28;20052;-90
2022/08/04 15:28:39;;;;;;;0.60;0.60;;;;;;;;;;5000035;28;20063;-93
2022/08/04 15:31:05;;;;;;;0.15;0.15;;;;;;;;;;5000147;28;20050;-89